Terminal Aerodrome Forecast
Issued by NWS Sioux Falls, SD

Home | Current Version | Previous Version | Text Only | Print | Product List | Glossary On
Versions: 1 2 3 4 5 6 7 8 9 10 11 12 13 14 15 16 17 18
654
FTUS43 KFSD 211136
TAFHON
TAF
KHON 211136Z 2112/2212 01007KT P6SM OVC060
     FM212000 04010KT P6SM OVC120
     FM220200 07009KT P6SM BKN110
     FM220800 12008KT P6SM BKN080=

USA.gov is the U.S. government's official web portal to all federal, state and local government web resources and services.